createdAt,value
2022-12-08T00:01:49.776Z,72.57
2022-12-08T00:07:29.450Z,72.98
2022-12-08T00:12:50.082Z,73.40
2022-12-08T00:18:11.032Z,73.53
2022-12-08T00:23:31.692Z,73.01
2022-12-08T00:28:52.637Z,72.79
2022-12-08T00:34:13.905Z,73.03
2022-12-08T00:39:35.009Z,72.79
2022-12-08T00:44:55.700Z,72.39
2022-12-08T00:50:16.422Z,72.99
2022-12-08T00:55:37.184Z,72.60
2022-12-08T01:00:58.117Z,73.06
2022-12-08T01:06:19.196Z,73.35
2022-12-08T01:11:39.763Z,73.43
2022-12-08T01:17:00.741Z,73.67
2022-12-08T01:22:21.413Z,72.68
2022-12-08T01:27:42.303Z,72.87
2022-12-08T01:33:03.071Z,73.00
2022-12-08T01:38:23.894Z,73.01
2022-12-08T01:43:50.785Z,72.99
2022-12-08T01:49:13.611Z,72.94
2022-12-08T01:54:36.647Z,73.18
2022-12-08T02:00:08.716Z,72.98
2022-12-08T02:05:31.543Z,72.79
2022-12-08T02:10:53.113Z,73.08
2022-12-08T02:16:26.109Z,73.03
2022-12-08T02:21:54.379Z,73.22
2022-12-08T02:27:18.182Z,73.78
2022-12-08T02:32:57.835Z,72.81
2022-12-08T02:38:37.198Z,73.25
2022-12-08T02:44:04.200Z,72.88
2022-12-08T02:49:29.351Z,73.08
2022-12-08T02:54:51.729Z,73.10
2022-12-08T03:00:17.265Z,72.57
2022-12-08T03:05:46.366Z,72.81
2022-12-08T03:11:22.190Z,73.36
2022-12-08T03:16:44.278Z,73.15
2022-12-08T03:22:06.275Z,73.50
2022-12-08T03:27:29.531Z,73.49
2022-12-08T03:32:56.198Z,73.08
2022-12-08T03:38:17.124Z,72.96
2022-12-08T03:43:38.252Z,72.43
2022-12-08T03:48:58.686Z,72.16
2022-12-08T03:54:19.719Z,72.79
2022-12-08T03:59:40.560Z,72.82
2022-12-08T04:05:01.555Z,73.16
2022-12-08T04:10:22.331Z,73.04
2022-12-08T04:15:46.698Z,72.86
2022-12-08T04:21:07.516Z,73.20
2022-12-08T04:26:28.493Z,72.53
2022-12-08T04:31:49.143Z,72.52
2022-12-08T04:37:10.017Z,72.98
2022-12-08T04:42:30.998Z,73.00
2022-12-08T04:47:51.879Z,73.03
2022-12-08T04:53:13.503Z,73.13
2022-12-08T04:58:34.169Z,72.83
2022-12-08T05:03:54.818Z,73.23
2022-12-08T05:09:15.692Z,73.08
2022-12-08T05:14:36.495Z,73.09
2022-12-08T05:19:57.269Z,72.89
2022-12-08T05:25:18.007Z,72.95
2022-12-08T05:30:38.909Z,73.08
2022-12-08T05:35:59.646Z,72.89
2022-12-08T05:41:20.936Z,72.98
2022-12-08T05:46:41.451Z,72.67
2022-12-08T05:52:02.257Z,73.31
2022-12-08T05:57:23.107Z,72.75
2022-12-08T06:02:44.096Z,73.24
2022-12-08T06:08:04.837Z,72.70
2022-12-08T06:13:25.632Z,72.13
2022-12-08T06:18:46.517Z,72.49
2022-12-08T06:24:07.173Z,72.76
2022-12-08T06:29:27.626Z,72.81
2022-12-08T06:34:48.389Z,72.67
2022-12-08T06:40:09.647Z,72.11
2022-12-08T06:45:30.300Z,72.34
2022-12-08T06:50:50.935Z,72.26
2022-12-08T06:56:12.177Z,72.39
2022-12-08T07:01:33.069Z,72.20
2022-12-08T07:06:53.723Z,72.41
2022-12-08T07:12:14.260Z,72.48
2022-12-08T07:17:34.968Z,72.54
2022-12-08T07:22:56.014Z,72.89
2022-12-08T07:28:16.632Z,72.88
2022-12-08T07:33:37.759Z,72.58
2022-12-08T07:38:58.469Z,78.27
2022-12-08T07:44:19.200Z,73.75
2022-12-08T07:49:39.849Z,72.40
2022-12-08T07:55:00.743Z,72.10
2022-12-08T08:00:21.649Z,72.02
2022-12-08T08:05:42.265Z,72.32
2022-12-08T08:11:15.807Z,72.29
2022-12-08T10:32:24.783Z,71.56
2022-12-08T10:37:56.209Z,71.73
2022-12-08T10:43:32.326Z,71.83
2022-12-08T11:27:36.993Z,72.43
2022-12-08T11:33:06.020Z,71.54
2022-12-08T11:43:12.082Z,71.07
2022-12-08T11:48:41.112Z,71.47
2022-12-08T11:54:12.436Z,72.09
2022-12-08T11:59:38.394Z,71.84
2022-12-08T12:05:05.179Z,71.52
2022-12-08T12:10:49.189Z,71.22
2022-12-08T12:16:15.914Z,70.66
2022-12-08T12:21:43.861Z,70.66
2022-12-08T12:27:25.004Z,71.44
2022-12-08T12:32:59.015Z,71.08
2022-12-08T12:38:53.978Z,71.50
2022-12-08T12:44:14.704Z,70.64
2022-12-08T12:50:05.981Z,71.24
2022-12-08T12:55:29.590Z,70.76
2022-12-08T13:00:50.508Z,70.45
2022-12-08T13:06:14.907Z,70.73
2022-12-08T13:11:50.221Z,70.41
2022-12-08T13:17:15.874Z,69.78
2022-12-08T13:22:53.477Z,70.38
2022-12-08T13:28:24.417Z,70.47
2022-12-08T13:33:45.302Z,70.32
2022-12-08T13:39:07.463Z,70.07
2022-12-08T13:52:32.769Z,69.68
2022-12-08T14:02:30.135Z,70.11
2022-12-08T14:07:55.205Z,70.16
2022-12-08T14:13:17.049Z,69.34
2022-12-08T14:18:37.990Z,70.29
2022-12-08T14:24:03.207Z,69.51
2022-12-08T14:29:46.945Z,72.95
2022-12-08T14:35:08.188Z,71.06
2022-12-08T14:40:36.370Z,70.18
2022-12-08T14:46:05.155Z,69.98
2022-12-08T14:51:31.095Z,69.82
2022-12-08T14:56:54.934Z,69.92
2022-12-08T15:02:15.899Z,69.74
2022-12-08T15:07:48.797Z,70.17
2022-12-08T15:13:09.794Z,69.60
2022-12-08T15:18:37.272Z,69.63
2022-12-08T15:23:58.181Z,70.04
2022-12-08T15:29:30.383Z,69.71
2022-12-08T15:34:51.363Z,69.36
2022-12-08T15:40:20.136Z,68.84
2022-12-08T15:45:50.552Z,69.16
2022-12-08T15:51:18.829Z,69.76
2022-12-08T15:57:17.838Z,69.64
2022-12-08T16:02:49.438Z,69.45
2022-12-08T16:08:44.736Z,69.64
2022-12-08T16:14:09.455Z,69.61
2022-12-08T16:19:38.719Z,69.26
2022-12-08T16:25:14.693Z,69.38
2022-12-08T16:30:39.043Z,69.07
2022-12-08T16:35:59.929Z,69.06
2022-12-08T16:41:39.197Z,69.27
2022-12-08T16:47:09.151Z,69.43
2022-12-08T16:52:29.950Z,68.88
2022-12-08T16:57:51.077Z,69.25
2022-12-08T17:03:14.732Z,69.07
2022-12-08T17:08:35.526Z,68.50
2022-12-08T17:13:56.152Z,69.24
2022-12-08T17:19:16.727Z,68.80
2022-12-08T17:24:38.235Z,68.87
2022-12-08T17:29:59.601Z,68.69
2022-12-08T17:35:20.668Z,68.57
2022-12-08T17:40:41.589Z,68.80
2022-12-08T17:46:02.544Z,69.83
2022-12-08T17:51:23.362Z,68.71
2022-12-08T17:56:45.058Z,68.54
2022-12-08T18:02:06.128Z,68.98
2022-12-08T18:07:27.055Z,68.87
2022-12-08T18:12:47.909Z,68.41
2022-12-08T18:18:08.597Z,69.64
2022-12-08T18:23:29.555Z,69.01
2022-12-08T18:28:50.307Z,68.53
2022-12-08T18:34:11.604Z,69.23
2022-12-08T18:39:35.899Z,68.63
2022-12-08T18:45:06.826Z,68.24
2022-12-08T18:50:27.544Z,68.01
2022-12-08T18:55:50.936Z,68.40
2022-12-08T19:01:15.179Z,68.74
2022-12-08T19:06:40.176Z,68.39
2022-12-08T19:12:00.965Z,70.18
2022-12-08T19:17:22.149Z,68.56
2022-12-08T19:22:43.078Z,68.31
2022-12-08T19:28:05.035Z,68.49
2022-12-08T19:33:26.881Z,68.51
2022-12-08T19:39:08.205Z,68.11
2022-12-08T19:44:47.713Z,68.11
2022-12-08T19:50:28.505Z,68.11
2022-12-08T19:55:49.478Z,69.24
2022-12-08T20:01:10.277Z,68.22
2022-12-08T20:06:31.095Z,68.91
2022-12-08T20:11:54.617Z,69.22
2022-12-08T20:17:15.691Z,69.66
2022-12-08T20:22:36.259Z,68.55
2022-12-08T20:27:57.132Z,68.51
2022-12-08T20:33:19.340Z,68.02
2022-12-08T20:38:40.318Z,68.57
2022-12-08T20:44:01.166Z,67.54
2022-12-08T20:49:22.136Z,68.07
2022-12-08T20:54:44.259Z,68.26
2022-12-08T21:00:07.005Z,67.84
2022-12-08T21:05:28.386Z,67.61
2022-12-08T21:10:58.212Z,68.62
2022-12-08T21:16:18.946Z,68.42
2022-12-08T21:21:40.205Z,67.45
2022-12-08T21:27:01.827Z,67.95
2022-12-08T21:32:28.586Z,67.44
2022-12-08T21:37:51.337Z,67.32
2022-12-08T21:43:13.676Z,67.42
2022-12-08T21:48:34.599Z,68.01
2022-12-08T21:53:55.381Z,67.75
2022-12-08T21:59:16.795Z,67.07
2022-12-08T22:04:39.182Z,67.48
2022-12-08T22:10:00.331Z,68.00
2022-12-08T22:15:21.770Z,67.74
2022-12-08T22:20:44.404Z,68.21
2022-12-08T22:26:06.284Z,67.55
2022-12-08T22:31:28.405Z,67.15
2022-12-08T22:36:49.354Z,67.36
2022-12-08T22:42:10.118Z,67.67
2022-12-08T22:47:31.041Z,67.75
2022-12-08T22:52:51.663Z,68.01
2022-12-08T22:58:12.300Z,67.51
2022-12-08T23:03:33.505Z,67.15
2022-12-08T23:08:55.481Z,67.83
2022-12-08T23:14:16.668Z,67.52
2022-12-08T23:19:38.709Z,67.66
2022-12-08T23:24:59.505Z,67.38
2022-12-08T23:30:20.184Z,67.68
2022-12-08T23:35:40.803Z,67.33
2022-12-08T23:41:06.541Z,68.49
2022-12-08T23:46:27.698Z,67.85
2022-12-08T23:51:49.257Z,67.41
2022-12-08T23:57:10.247Z,68.01
